Elkhart, IN

9:50 AM EST on February 28, 2015 (GMT -0500)
Elkhart County West | Change Station
CLOSE
Current Station
Personal Weather Station
Location: Elkhart, IN
Elevation: 758 ft
Nearby Weather Stations

Elev 758 ft 41.71 °N, 86.04 °W | Updated 9 seconds ago

Clear
Clear
8.4 °F
Feels Like 8 °F
N
0.0
Wind Variable Wind from SW
Gusts 0.0 mph

Today
High -- | Low -- °F
--% Chance of Precip.
Yesterday
High -- | Low -- °F
Precip. -- in
7:20 AM 6:32 PM
Waxing Gibbous, 78% visible
Pressure 30.75 in
Visibility 7.0 miles
Clouds Clear
Windchill 8 °F
Dew Point 2 °F
Humidity 75%
Rainfall 0.00 in
Snow Depth Not available.
UV 1 out of 12
Pollen .30 out of 12
Air Quality Not available.
Flu Activity Not available.
METAR KEKM 281350Z 00000KT 7SM SKC M19/M23 A3075 RMK A02

More Conditions Fewer Conditions

Pressure 30.75 in
Visibility 7.0 miles
Clouds Clear
Windchill 8 °F
Dew Point 2 °F
Humidity 75%
Rainfall 0.00 in
Snow Depth Not available.
UV 1 out of 12
Pollen .30 out of 12
Air Quality Not available.
Flu Activity Not available.
METAR KEKM 281350Z 00000KT 7SM SKC M19/M23 A3075 RMK A02

More Conditions Fewer Conditions

10-Day Weather Forecast

Almanac

Astronomy

Feb. 28, 2015 Rise Set
Actual Time
Civil Twilight
Nautical Twilight
Astronomical Twilight
Moon
Length of Visible Light
Length of Day
Tomorrow will be .
, % of the Moon is Illuminated

Today's Extremes

State Highs State Lows

Community

WunderPhotos

Upload Photos

1,801,025 photos uploaded!

WunderBlogs® & News

Nearby

Air Quality

  Air Quality AQ Index Pollutant
Not available.

Snow Depth

Station Depth Elevation

Earthquake Activity

City Distance Mag. Time & Date
Minimum magnitude displayed is 2.5.

Coastal Water Temperatures

Place Temperature

Nearby Weather Stations